Caledonia, Minnesota
Current Conditions -  °F | °C
As of 5:21 AM on Friday 24 Oct 2014 (Local Time) from KLSE Reporting Station
Haze Haze  
Wind Chill: 51°   Ceiling: 300
Heat Index: 51°   Visibility: 2.5mi
Dew Point: 50°   Wind: 6mph
Humidity: 96%   Direction: 160°SSE
Pressure: 30.01"   Gusts: NA
Location:  43.63°N, 91.5°W
Report Text: KLSE 241021Z AUTO 16005KT 2 1/2SM BR OVC003 11/10 A3001 RMK AO2 T01060100
Loading
Personal Weather Stations






























Interactive Weather Map
Tropical Storm Tracking
New forecast layout! Learn more

10-Day Weather Forecast

Advertisements
Track Severe Weather on mobile